sensor_id;sensor_type;location;lat;lon;timestamp;P1;durP1;ratioP1;P2;durP2;ratioP2
24277;SDS011;12394;42.692;23.314;2023-11-19T00:00:34;2.43;;;2.23;;
24277;SDS011;12394;42.692;23.314;2023-11-19T00:03:00;2.87;;;2.53;;
24277;SDS011;12394;42.692;23.314;2023-11-19T00:05:26;3.07;;;2.53;;
24277;SDS011;12394;42.692;23.314;2023-11-19T00:07:52;3.83;;;2.83;;
24277;SDS011;12394;42.692;23.314;2023-11-19T00:10:18;3.17;;;2.60;;
24277;SDS011;12394;42.692;23.314;2023-11-19T00:12:45;2.97;;;2.47;;
24277;SDS011;12394;42.692;23.314;2023-11-19T00:15:12;3.10;;;2.80;;
24277;SDS011;12394;42.692;23.314;2023-11-19T00:17:38;3.37;;;2.60;;
24277;SDS011;12394;42.692;23.314;2023-11-19T00:20:07;2.57;;;2.33;;
24277;SDS011;12394;42.692;23.314;2023-11-19T00:22:33;2.70;;;2.23;;
24277;SDS011;12394;42.692;23.314;2023-11-19T00:24:58;2.83;;;2.63;;
24277;SDS011;12394;42.692;23.314;2023-11-19T00:27:24;3.20;;;2.50;;
24277;SDS011;12394;42.692;23.314;2023-11-19T00:29:50;2.50;;;2.30;;
24277;SDS011;12394;42.692;23.314;2023-11-19T00:32:15;2.90;;;2.60;;
24277;SDS011;12394;42.692;23.314;2023-11-19T00:34:43;4.13;;;2.30;;
24277;SDS011;12394;42.692;23.314;2023-11-19T00:37:09;3.03;;;2.57;;
24277;SDS011;12394;42.692;23.314;2023-11-19T00:39:34;2.90;;;2.53;;
24277;SDS011;12394;42.692;23.314;2023-11-19T00:42:00;5.30;;;2.93;;
24277;SDS011;12394;42.692;23.314;2023-11-19T00:44:25;3.07;;;2.77;;
24277;SDS011;12394;42.692;23.314;2023-11-19T00:46:51;5.17;;;2.60;;
24277;SDS011;12394;42.692;23.314;2023-11-19T00:49:16;4.73;;;3.20;;
24277;SDS011;12394;42.692;23.314;2023-11-19T00:51:42;7.67;;;3.33;;
24277;SDS011;12394;42.692;23.314;2023-11-19T00:54:07;6.40;;;3.20;;
24277;SDS011;12394;42.692;23.314;2023-11-19T00:56:32;3.73;;;2.70;;
24277;SDS011;12394;42.692;23.314;2023-11-19T00:58:58;3.10;;;2.80;;
24277;SDS011;12394;42.692;23.314;2023-11-19T01:01:25;3.00;;;2.70;;
24277;SDS011;12394;42.692;23.314;2023-11-19T01:03:51;4.57;;;2.80;;
24277;SDS011;12394;42.692;23.314;2023-11-19T01:06:26;3.97;;;3.30;;
24277;SDS011;12394;42.692;23.314;2023-11-19T01:08:55;3.63;;;3.00;;
24277;SDS011;12394;42.692;23.314;2023-11-19T01:11:22;3.43;;;2.73;;
24277;SDS011;12394;42.692;23.314;2023-11-19T01:13:48;2.83;;;2.50;;
24277;SDS011;12394;42.692;23.314;2023-11-19T01:16:14;2.90;;;2.60;;
24277;SDS011;12394;42.692;23.314;2023-11-19T01:18:39;3.00;;;2.57;;
24277;SDS011;12394;42.692;23.314;2023-11-19T01:21:05;3.17;;;2.80;;
24277;SDS011;12394;42.692;23.314;2023-11-19T01:23:30;4.33;;;2.50;;
24277;SDS011;12394;42.692;23.314;2023-11-19T01:25:57;3.67;;;2.80;;
24277;SDS011;12394;42.692;23.314;2023-11-19T01:28:23;3.93;;;2.60;;
24277;SDS011;12394;42.692;23.314;2023-11-19T01:30:50;3.27;;;2.90;;
24277;SDS011;12394;42.692;23.314;2023-11-19T01:33:16;3.07;;;2.53;;
24277;SDS011;12394;42.692;23.314;2023-11-19T01:35:41;2.97;;;2.77;;
24277;SDS011;12394;42.692;23.314;2023-11-19T01:38:06;2.87;;;2.60;;
24277;SDS011;12394;42.692;23.314;2023-11-19T01:40:33;5.73;;;2.40;;
24277;SDS011;12394;42.692;23.314;2023-11-19T01:42:59;2.67;;;2.27;;
24277;SDS011;12394;42.692;23.314;2023-11-19T01:45:28;3.23;;;2.30;;
24277;SDS011;12394;42.692;23.314;2023-11-19T01:47:58;3.70;;;2.60;;
24277;SDS011;12394;42.692;23.314;2023-11-19T01:50:25;2.57;;;2.30;;
24277;SDS011;12394;42.692;23.314;2023-11-19T01:52:52;2.90;;;2.60;;
24277;SDS011;12394;42.692;23.314;2023-11-19T01:55:21;2.57;;;2.20;;
24277;SDS011;12394;42.692;23.314;2023-11-19T01:57:47;3.00;;;2.63;;
24277;SDS011;12394;42.692;23.314;2023-11-19T02:00:14;3.60;;;2.70;;
24277;SDS011;12394;42.692;23.314;2023-11-19T02:02:41;4.23;;;2.30;;
24277;SDS011;12394;42.692;23.314;2023-11-19T02:05:08;2.80;;;2.47;;
24277;SDS011;12394;42.692;23.314;2023-11-19T02:07:36;3.43;;;2.67;;
24277;SDS011;12394;42.692;23.314;2023-11-19T02:10:01;2.90;;;2.57;;
24277;SDS011;12394;42.692;23.314;2023-11-19T02:12:30;2.60;;;2.33;;
24277;SDS011;12394;42.692;23.314;2023-11-19T02:14:58;3.10;;;2.40;;
24277;SDS011;12394;42.692;23.314;2023-11-19T02:17:25;2.63;;;2.33;;
24277;SDS011;12394;42.692;23.314;2023-11-19T02:19:51;3.27;;;2.47;;
24277;SDS011;12394;42.692;23.314;2023-11-19T02:22:17;3.03;;;2.33;;
24277;SDS011;12394;42.692;23.314;2023-11-19T02:24:43;4.70;;;2.67;;
24277;SDS011;12394;42.692;23.314;2023-11-19T02:27:14;3.47;;;2.77;;
24277;SDS011;12394;42.692;23.314;2023-11-19T02:29:47;2.90;;;2.33;;
24277;SDS011;12394;42.692;23.314;2023-11-19T02:32:12;3.40;;;2.60;;
24277;SDS011;12394;42.692;23.314;2023-11-19T02:34:41;3.50;;;2.67;;
24277;SDS011;12394;42.692;23.314;2023-11-19T02:37:06;3.07;;;2.50;;
24277;SDS011;12394;42.692;23.314;2023-11-19T02:39:32;2.97;;;2.40;;
24277;SDS011;12394;42.692;23.314;2023-11-19T02:41:57;3.10;;;2.40;;
24277;SDS011;12394;42.692;23.314;2023-11-19T02:44:22;3.80;;;2.83;;
24277;SDS011;12394;42.692;23.314;2023-11-19T02:46:48;2.80;;;2.50;;
24277;SDS011;12394;42.692;23.314;2023-11-19T02:49:14;3.00;;;2.70;;
24277;SDS011;12394;42.692;23.314;2023-11-19T02:51:40;3.80;;;2.70;;
24277;SDS011;12394;42.692;23.314;2023-11-19T02:54:06;3.23;;;2.80;;
24277;SDS011;12394;42.692;23.314;2023-11-19T02:56:31;3.27;;;2.20;;
24277;SDS011;12394;42.692;23.314;2023-11-19T02:59:00;3.20;;;2.57;;
24277;SDS011;12394;42.692;23.314;2023-11-19T03:01:40;2.53;;;2.20;;
24277;SDS011;12394;42.692;23.314;2023-11-19T03:04:08;3.43;;;2.60;;
24277;SDS011;12394;42.692;23.314;2023-11-19T03:06:37;4.80;;;2.90;;
24277;SDS011;12394;42.692;23.314;2023-11-19T03:09:02;3.43;;;2.77;;
24277;SDS011;12394;42.692;23.314;2023-11-19T03:11:32;3.13;;;2.50;;
24277;SDS011;12394;42.692;23.314;2023-11-19T03:13:58;3.20;;;2.70;;
24277;SDS011;12394;42.692;23.314;2023-11-19T03:16:24;3.03;;;2.67;;
24277;SDS011;12394;42.692;23.314;2023-11-19T03:18:49;4.07;;;3.20;;
24277;SDS011;12394;42.692;23.314;2023-11-19T03:21:14;2.90;;;2.60;;
24277;SDS011;12394;42.692;23.314;2023-11-19T03:23:40;3.13;;;2.83;;
24277;SDS011;12394;42.692;23.314;2023-11-19T03:26:05;3.50;;;2.83;;
24277;SDS011;12394;42.692;23.314;2023-11-19T03:28:31;3.43;;;3.10;;
24277;SDS011;12394;42.692;23.314;2023-11-19T03:30:57;2.53;;;2.33;;
24277;SDS011;12394;42.692;23.314;2023-11-19T03:33:22;3.00;;;2.70;;
24277;SDS011;12394;42.692;23.314;2023-11-19T03:35:48;3.07;;;2.30;;
24277;SDS011;12394;42.692;23.314;2023-11-19T03:38:13;3.10;;;2.50;;
24277;SDS011;12394;42.692;23.314;2023-11-19T03:40:39;3.07;;;2.70;;
24277;SDS011;12394;42.692;23.314;2023-11-19T03:43:05;4.23;;;3.20;;
24277;SDS011;12394;42.692;23.314;2023-11-19T03:45:31;5.10;;;3.10;;
24277;SDS011;12394;42.692;23.314;2023-11-19T03:47:56;3.73;;;3.13;;
24277;SDS011;12394;42.692;23.314;2023-11-19T03:50:22;3.47;;;2.90;;
24277;SDS011;12394;42.692;23.314;2023-11-19T03:52:48;3.57;;;2.67;;
24277;SDS011;12394;42.692;23.314;2023-11-19T03:55:14;4.43;;;2.90;;
24277;SDS011;12394;42.692;23.314;2023-11-19T03:57:40;5.57;;;2.80;;
24277;SDS011;12394;42.692;23.314;2023-11-19T04:00:05;3.47;;;2.50;;
24277;SDS011;12394;42.692;23.314;2023-11-19T04:02:39;4.30;;;2.80;;
24277;SDS011;12394;42.692;23.314;2023-11-19T04:05:05;3.30;;;2.67;;
24277;SDS011;12394;42.692;23.314;2023-11-19T04:07:31;3.30;;;2.57;;
24277;SDS011;12394;42.692;23.314;2023-11-19T04:09:57;4.03;;;3.13;;
24277;SDS011;12394;42.692;23.314;2023-11-19T04:12:24;2.90;;;2.60;;
24277;SDS011;12394;42.692;23.314;2023-11-19T04:14:50;3.50;;;2.87;;
24277;SDS011;12394;42.692;23.314;2023-11-19T04:17:15;2.63;;;2.17;;
24277;SDS011;12394;42.692;23.314;2023-11-19T04:19:40;3.30;;;3.00;;
24277;SDS011;12394;42.692;23.314;2023-11-19T04:22:07;4.77;;;2.80;;
24277;SDS011;12394;42.692;23.314;2023-11-19T04:24:34;3.00;;;2.70;;
24277;SDS011;12394;42.692;23.314;2023-11-19T04:26:59;3.27;;;2.97;;
24277;SDS011;12394;42.692;23.314;2023-11-19T04:29:25;4.73;;;3.10;;
24277;SDS011;12394;42.692;23.314;2023-11-19T04:31:50;3.87;;;2.60;;
24277;SDS011;12394;42.692;23.314;2023-11-19T04:34:16;4.10;;;2.50;;
24277;SDS011;12394;42.692;23.314;2023-11-19T04:36:41;3.77;;;2.67;;
24277;SDS011;12394;42.692;23.314;2023-11-19T04:39:06;3.47;;;3.00;;
24277;SDS011;12394;42.692;23.314;2023-11-19T04:41:45;4.33;;;2.93;;
24277;SDS011;12394;42.692;23.314;2023-11-19T04:44:14;3.33;;;3.00;;
24277;SDS011;12394;42.692;23.314;2023-11-19T04:46:41;3.47;;;2.40;;
24277;SDS011;12394;42.692;23.314;2023-11-19T04:49:08;3.20;;;2.90;;
24277;SDS011;12394;42.692;23.314;2023-11-19T04:51:39;8.93;;;5.57;;
24277;SDS011;12394;42.692;23.314;2023-11-19T04:54:08;3.07;;;2.80;;
24277;SDS011;12394;42.692;23.314;2023-11-19T04:56:38;3.00;;;2.47;;
24277;SDS011;12394;42.692;23.314;2023-11-19T04:59:04;3.13;;;2.60;;
24277;SDS011;12394;42.692;23.314;2023-11-19T05:01:34;3.87;;;3.10;;
24277;SDS011;12394;42.692;23.314;2023-11-19T05:04:00;3.13;;;2.63;;
24277;SDS011;12394;42.692;23.314;2023-11-19T05:06:29;3.30;;;2.80;;
24277;SDS011;12394;42.692;23.314;2023-11-19T05:08:56;3.90;;;3.00;;
24277;SDS011;12394;42.692;23.314;2023-11-19T05:11:22;4.63;;;2.70;;
24277;SDS011;12394;42.692;23.314;2023-11-19T05:13:47;3.47;;;2.93;;
24277;SDS011;12394;42.692;23.314;2023-11-19T05:16:13;3.80;;;2.80;;
24277;SDS011;12394;42.692;23.314;2023-11-19T05:18:42;3.90;;;2.63;;
24277;SDS011;12394;42.692;23.314;2023-11-19T05:21:07;4.83;;;2.97;;
24277;SDS011;12394;42.692;23.314;2023-11-19T05:23:33;3.37;;;2.77;;
24277;SDS011;12394;42.692;23.314;2023-11-19T05:25:59;4.03;;;2.50;;
24277;SDS011;12394;42.692;23.314;2023-11-19T05:28:26;3.23;;;2.93;;
24277;SDS011;12394;42.692;23.314;2023-11-19T05:30:51;4.77;;;3.00;;
24277;SDS011;12394;42.692;23.314;2023-11-19T05:33:17;3.57;;;2.73;;
24277;SDS011;12394;42.692;23.314;2023-11-19T05:35:42;5.30;;;3.10;;
24277;SDS011;12394;42.692;23.314;2023-11-19T05:38:08;4.20;;;3.03;;
24277;SDS011;12394;42.692;23.314;2023-11-19T05:40:34;3.20;;;2.90;;
24277;SDS011;12394;42.692;23.314;2023-11-19T05:43:00;4.77;;;3.53;;
24277;SDS011;12394;42.692;23.314;2023-11-19T05:45:26;4.93;;;3.57;;
24277;SDS011;12394;42.692;23.314;2023-11-19T05:47:51;4.07;;;2.83;;
24277;SDS011;12394;42.692;23.314;2023-11-19T05:50:17;5.37;;;3.20;;
24277;SDS011;12394;42.692;23.314;2023-11-19T05:52:43;3.10;;;2.73;;
24277;SDS011;12394;42.692;23.314;2023-11-19T05:55:08;4.20;;;2.97;;
24277;SDS011;12394;42.692;23.314;2023-11-19T05:57:37;4.00;;;3.13;;
24277;SDS011;12394;42.692;23.314;2023-11-19T06:00:03;3.70;;;2.93;;
24277;SDS011;12394;42.692;23.314;2023-11-19T06:02:32;3.43;;;3.10;;
24277;SDS011;12394;42.692;23.314;2023-11-19T06:04:58;5.53;;;3.70;;
24277;SDS011;12394;42.692;23.314;2023-11-19T06:07:23;3.30;;;3.00;;
24277;SDS011;12394;42.692;23.314;2023-11-19T06:09:50;3.33;;;3.00;;
24277;SDS011;12394;42.692;23.314;2023-11-19T06:12:15;3.20;;;2.90;;
24277;SDS011;12394;42.692;23.314;2023-11-19T06:14:41;3.03;;;2.77;;
24277;SDS011;12394;42.692;23.314;2023-11-19T06:17:06;5.13;;;2.90;;
24277;SDS011;12394;42.692;23.314;2023-11-19T06:19:33;6.57;;;3.90;;
24277;SDS011;12394;42.692;23.314;2023-11-19T06:21:59;4.63;;;3.37;;
24277;SDS011;12394;42.692;23.314;2023-11-19T06:24:24;3.63;;;3.07;;
24277;SDS011;12394;42.692;23.314;2023-11-19T06:26:50;4.57;;;3.60;;
24277;SDS011;12394;42.692;23.314;2023-11-19T06:29:15;4.27;;;3.23;;
24277;SDS011;12394;42.692;23.314;2023-11-19T06:31:44;4.87;;;3.53;;
24277;SDS011;12394;42.692;23.314;2023-11-19T06:34:10;4.50;;;3.30;;
24277;SDS011;12394;42.692;23.314;2023-11-19T06:36:35;3.77;;;3.10;;
24277;SDS011;12394;42.692;23.314;2023-11-19T06:39:01;7.23;;;3.20;;
24277;SDS011;12394;42.692;23.314;2023-11-19T06:41:26;4.93;;;3.70;;
24277;SDS011;12394;42.692;23.314;2023-11-19T06:43:53;4.33;;;3.07;;
24277;SDS011;12394;42.692;23.314;2023-11-19T06:46:19;4.70;;;3.40;;
24277;SDS011;12394;42.692;23.314;2023-11-19T06:48:45;4.50;;;3.20;;
24277;SDS011;12394;42.692;23.314;2023-11-19T06:51:11;4.10;;;3.43;;
24277;SDS011;12394;42.692;23.314;2023-11-19T06:53:37;4.57;;;3.33;;
24277;SDS011;12394;42.692;23.314;2023-11-19T06:56:05;5.60;;;3.27;;
24277;SDS011;12394;42.692;23.314;2023-11-19T06:58:35;4.40;;;2.83;;
24277;SDS011;12394;42.692;23.314;2023-11-19T07:01:01;4.77;;;3.20;;
24277;SDS011;12394;42.692;23.314;2023-11-19T07:03:26;4.40;;;2.97;;
24277;SDS011;12394;42.692;23.314;2023-11-19T07:05:52;5.10;;;3.37;;
24277;SDS011;12394;42.692;23.314;2023-11-19T07:08:17;3.60;;;3.13;;
24277;SDS011;12394;42.692;23.314;2023-11-19T07:10:43;4.30;;;3.30;;
24277;SDS011;12394;42.692;23.314;2023-11-19T07:13:08;3.83;;;3.23;;
24277;SDS011;12394;42.692;23.314;2023-11-19T07:15:34;4.80;;;3.03;;
24277;SDS011;12394;42.692;23.314;2023-11-19T07:18:01;3.90;;;3.40;;
24277;SDS011;12394;42.692;23.314;2023-11-19T07:20:28;4.17;;;3.23;;
24277;SDS011;12394;42.692;23.314;2023-11-19T07:22:53;3.20;;;2.73;;
24277;SDS011;12394;42.692;23.314;2023-11-19T07:25:24;6.27;;;3.87;;
24277;SDS011;12394;42.692;23.314;2023-11-19T07:27:51;5.73;;;4.00;;
24277;SDS011;12394;42.692;23.314;2023-11-19T07:30:17;6.17;;;3.33;;
24277;SDS011;12394;42.692;23.314;2023-11-19T07:32:43;5.10;;;3.43;;
24277;SDS011;12394;42.692;23.314;2023-11-19T07:35:08;5.30;;;4.03;;
24277;SDS011;12394;42.692;23.314;2023-11-19T07:37:34;5.50;;;4.20;;
24277;SDS011;12394;42.692;23.314;2023-11-19T07:39:59;5.03;;;4.13;;
24277;SDS011;12394;42.692;23.314;2023-11-19T07:42:25;6.33;;;4.00;;
24277;SDS011;12394;42.692;23.314;2023-11-19T07:44:50;3.70;;;3.13;;
24277;SDS011;12394;42.692;23.314;2023-11-19T07:47:16;4.87;;;3.07;;
24277;SDS011;12394;42.692;23.314;2023-11-19T07:49:41;4.93;;;3.50;;
24277;SDS011;12394;42.692;23.314;2023-11-19T07:52:09;7.63;;;3.57;;
24277;SDS011;12394;42.692;23.314;2023-11-19T07:54:34;4.87;;;3.70;;
24277;SDS011;12394;42.692;23.314;2023-11-19T07:57:00;6.60;;;3.50;;
24277;SDS011;12394;42.692;23.314;2023-11-19T07:59:26;4.97;;;3.43;;
24277;SDS011;12394;42.692;23.314;2023-11-19T08:01:51;4.17;;;3.30;;
24277;SDS011;12394;42.692;23.314;2023-11-19T08:04:17;3.77;;;3.20;;
24277;SDS011;12394;42.692;23.314;2023-11-19T08:06:42;4.90;;;3.90;;
24277;SDS011;12394;42.692;23.314;2023-11-19T08:09:08;3.93;;;3.03;;
24277;SDS011;12394;42.692;23.314;2023-11-19T08:11:38;4.93;;;3.50;;
24277;SDS011;12394;42.692;23.314;2023-11-19T08:14:05;3.57;;;3.20;;
24277;SDS011;12394;42.692;23.314;2023-11-19T08:16:31;3.37;;;2.80;;
24277;SDS011;12394;42.692;23.314;2023-11-19T08:18:56;4.67;;;3.53;;
24277;SDS011;12394;42.692;23.314;2023-11-19T08:21:23;4.23;;;3.50;;
24277;SDS011;12394;42.692;23.314;2023-11-19T08:23:49;5.03;;;3.53;;
24277;SDS011;12394;42.692;23.314;2023-11-19T08:26:15;4.20;;;3.50;;
24277;SDS011;12394;42.692;23.314;2023-11-19T08:28:40;4.93;;;3.33;;
24277;SDS011;12394;42.692;23.314;2023-11-19T08:31:06;5.37;;;3.63;;
24277;SDS011;12394;42.692;23.314;2023-11-19T08:33:32;4.97;;;3.93;;
24277;SDS011;12394;42.692;23.314;2023-11-19T08:35:57;3.80;;;3.40;;
24277;SDS011;12394;42.692;23.314;2023-11-19T08:38:24;4.63;;;3.43;;
24277;SDS011;12394;42.692;23.314;2023-11-19T08:40:50;4.90;;;3.90;;
24277;SDS011;12394;42.692;23.314;2023-11-19T08:43:15;4.03;;;3.37;;
24277;SDS011;12394;42.692;23.314;2023-11-19T08:45:41;6.33;;;3.97;;
24277;SDS011;12394;42.692;23.314;2023-11-19T08:48:06;4.63;;;3.93;;
24277;SDS011;12394;42.692;23.314;2023-11-19T08:50:32;4.10;;;3.40;;
24277;SDS011;12394;42.692;23.314;2023-11-19T08:52:57;9.63;;;3.50;;
24277;SDS011;12394;42.692;23.314;2023-11-19T08:55:23;4.03;;;3.23;;
24277;SDS011;12394;42.692;23.314;2023-11-19T08:57:48;4.17;;;3.17;;
24277;SDS011;12394;42.692;23.314;2023-11-19T09:00:14;5.00;;;3.47;;
24277;SDS011;12394;42.692;23.314;2023-11-19T09:02:39;4.03;;;3.37;;
24277;SDS011;12394;42.692;23.314;2023-11-19T09:05:05;6.80;;;3.67;;
24277;SDS011;12394;42.692;23.314;2023-11-19T09:07:34;3.73;;;3.20;;
24277;SDS011;12394;42.692;23.314;2023-11-19T09:09:59;5.87;;;3.60;;
24277;SDS011;12394;42.692;23.314;2023-11-19T09:12:25;4.80;;;3.67;;
24277;SDS011;12394;42.692;23.314;2023-11-19T09:14:50;5.27;;;3.50;;
24277;SDS011;12394;42.692;23.314;2023-11-19T09:17:15;4.80;;;3.47;;
24277;SDS011;12394;42.692;23.314;2023-11-19T09:19:42;4.40;;;3.47;;
24277;SDS011;12394;42.692;23.314;2023-11-19T09:22:08;4.17;;;3.37;;
24277;SDS011;12394;42.692;23.314;2023-11-19T09:24:33;4.53;;;3.40;;
24277;SDS011;12394;42.692;23.314;2023-11-19T09:26:58;4.13;;;3.53;;
24277;SDS011;12394;42.692;23.314;2023-11-19T09:29:25;4.17;;;3.53;;
24277;SDS011;12394;42.692;23.314;2023-11-19T09:31:50;5.13;;;3.93;;
24277;SDS011;12394;42.692;23.314;2023-11-19T09:34:16;4.23;;;3.50;;
24277;SDS011;12394;42.692;23.314;2023-11-19T09:36:42;4.60;;;3.87;;
24277;SDS011;12394;42.692;23.314;2023-11-19T09:39:09;4.50;;;3.47;;
24277;SDS011;12394;42.692;23.314;2023-11-19T09:41:35;5.07;;;3.47;;
24277;SDS011;12394;42.692;23.314;2023-11-19T09:44:01;4.17;;;3.57;;
24277;SDS011;12394;42.692;23.314;2023-11-19T09:46:26;5.03;;;3.80;;
24277;SDS011;12394;42.692;23.314;2023-11-19T09:48:53;4.23;;;3.37;;
24277;SDS011;12394;42.692;23.314;2023-11-19T09:51:20;3.90;;;3.03;;
24277;SDS011;12394;42.692;23.314;2023-11-19T09:53:46;3.93;;;3.27;;
24277;SDS011;12394;42.692;23.314;2023-11-19T09:56:11;3.67;;;3.20;;
24277;SDS011;12394;42.692;23.314;2023-11-19T09:58:37;5.60;;;3.87;;
24277;SDS011;12394;42.692;23.314;2023-11-19T10:01:03;4.83;;;3.60;;
24277;SDS011;12394;42.692;23.314;2023-11-19T10:03:32;5.20;;;3.17;;
24277;SDS011;12394;42.692;23.314;2023-11-19T10:06:09;4.70;;;3.50;;
24277;SDS011;12394;42.692;23.314;2023-11-19T10:08:38;3.30;;;3.00;;
24277;SDS011;12394;42.692;23.314;2023-11-19T10:11:05;5.27;;;2.93;;
24277;SDS011;12394;42.692;23.314;2023-11-19T10:13:31;5.90;;;3.80;;
24277;SDS011;12394;42.692;23.314;2023-11-19T10:16:03;4.83;;;3.53;;
24277;SDS011;12394;42.692;23.314;2023-11-19T10:18:32;11.00;;;4.20;;
24277;SDS011;12394;42.692;23.314;2023-11-19T10:21:02;4.63;;;3.70;;
24277;SDS011;12394;42.692;23.314;2023-11-19T10:23:29;4.60;;;4.03;;
24277;SDS011;12394;42.692;23.314;2023-11-19T10:25:54;3.80;;;3.33;;
24277;SDS011;12394;42.692;23.314;2023-11-19T10:28:27;4.53;;;3.67;;
24277;SDS011;12394;42.692;23.314;2023-11-19T10:31:04;3.90;;;3.03;;
24277;SDS011;12394;42.692;23.314;2023-11-19T10:33:30;3.37;;;2.73;;
24277;SDS011;12394;42.692;23.314;2023-11-19T10:35:56;4.23;;;3.37;;
24277;SDS011;12394;42.692;23.314;2023-11-19T10:38:23;5.13;;;3.63;;
24277;SDS011;12394;42.692;23.314;2023-11-19T10:40:49;5.27;;;3.67;;
24277;SDS011;12394;42.692;23.314;2023-11-19T10:43:16;4.87;;;2.90;;
24277;SDS011;12394;42.692;23.314;2023-11-19T10:45:42;4.47;;;2.97;;
24277;SDS011;12394;42.692;23.314;2023-11-19T10:48:08;4.20;;;3.27;;
24277;SDS011;12394;42.692;23.314;2023-11-19T10:50:38;3.93;;;3.07;;
24277;SDS011;12394;42.692;23.314;2023-11-19T10:53:05;5.10;;;3.10;;
24277;SDS011;12394;42.692;23.314;2023-11-19T10:55:34;2.93;;;2.50;;
24277;SDS011;12394;42.692;23.314;2023-11-19T10:58:01;3.50;;;2.90;;
24277;SDS011;12394;42.692;23.314;2023-11-19T11:03:19;4.00;;;3.07;;
24277;SDS011;12394;42.692;23.314;2023-11-19T11:05:47;3.90;;;2.67;;
24277;SDS011;12394;42.692;23.314;2023-11-19T11:08:14;5.33;;;3.70;;
24277;SDS011;12394;42.692;23.314;2023-11-19T11:10:42;2.90;;;2.60;;
24277;SDS011;12394;42.692;23.314;2023-11-19T11:13:09;3.10;;;2.60;;
24277;SDS011;12394;42.692;23.314;2023-11-19T11:15:37;2.50;;;2.13;;
24277;SDS011;12394;42.692;23.314;2023-11-19T11:18:03;2.83;;;2.53;;
24277;SDS011;12394;42.692;23.314;2023-11-19T11:20:33;4.00;;;2.73;;
24277;SDS011;12394;42.692;23.314;2023-11-19T11:28:56;3.20;;;2.10;;
24277;SDS011;12394;42.692;23.314;2023-11-19T11:40:03;2.37;;;1.90;;
24277;SDS011;12394;42.692;23.314;2023-11-19T11:42:34;2.20;;;2.00;;
24277;SDS011;12394;42.692;23.314;2023-11-19T11:45:04;2.17;;;1.97;;
24277;SDS011;12394;42.692;23.314;2023-11-19T11:50:18;2.63;;;2.40;;
24277;SDS011;12394;42.692;23.314;2023-11-19T11:53:15;5.37;;;2.67;;
24277;SDS011;12394;42.692;23.314;2023-11-19T11:58:37;2.37;;;2.17;;
24277;SDS011;12394;42.692;23.314;2023-11-19T12:01:03;2.87;;;2.20;;
24277;SDS011;12394;42.692;23.314;2023-11-19T12:03:31;3.13;;;2.53;;
24277;SDS011;12394;42.692;23.314;2023-11-19T12:06:02;3.00;;;2.53;;
24277;SDS011;12394;42.692;23.314;2023-11-19T12:08:28;2.73;;;2.53;;
24277;SDS011;12394;42.692;23.314;2023-11-19T12:10:55;3.00;;;2.57;;
24277;SDS011;12394;42.692;23.314;2023-11-19T12:13:24;2.67;;;2.40;;
24277;SDS011;12394;42.692;23.314;2023-11-19T12:16:10;2.80;;;2.60;;
24277;SDS011;12394;42.692;23.314;2023-11-19T12:18:36;4.57;;;2.60;;
24277;SDS011;12394;42.692;23.314;2023-11-19T12:21:29;3.80;;;2.67;;
24277;SDS011;12394;42.692;23.314;2023-11-19T12:23:57;3.27;;;2.70;;
24277;SDS011;12394;42.692;23.314;2023-11-19T12:26:31;3.37;;;3.03;;
24277;SDS011;12394;42.692;23.314;2023-11-19T12:28:58;2.80;;;2.60;;
24277;SDS011;12394;42.692;23.314;2023-11-19T12:31:25;4.47;;;3.40;;
24277;SDS011;12394;42.692;23.314;2023-11-19T12:33:51;3.10;;;2.53;;
24277;SDS011;12394;42.692;23.314;2023-11-19T12:36:18;2.97;;;2.73;;
24277;SDS011;12394;42.692;23.314;2023-11-19T12:38:44;5.00;;;3.30;;
24277;SDS011;12394;42.692;23.314;2023-11-19T12:41:11;3.37;;;3.07;;
24277;SDS011;12394;42.692;23.314;2023-11-19T12:43:37;4.10;;;2.73;;
24277;SDS011;12394;42.692;23.314;2023-11-19T12:46:24;2.50;;;2.30;;
24277;SDS011;12394;42.692;23.314;2023-11-19T12:48:50;2.63;;;2.33;;
24277;SDS011;12394;42.692;23.314;2023-11-19T12:51:16;4.30;;;3.03;;
24277;SDS011;12394;42.692;23.314;2023-11-19T12:53:49;3.33;;;3.03;;
24277;SDS011;12394;42.692;23.314;2023-11-19T12:56:18;5.77;;;3.13;;
24277;SDS011;12394;42.692;23.314;2023-11-19T12:58:43;3.30;;;2.90;;
24277;SDS011;12394;42.692;23.314;2023-11-19T13:01:09;3.47;;;3.17;;
24277;SDS011;12394;42.692;23.314;2023-11-19T13:03:38;9.20;;;3.03;;
24277;SDS011;12394;42.692;23.314;2023-11-19T13:08:51;6.83;;;4.33;;
24277;SDS011;12394;42.692;23.314;2023-11-19T13:11:35;5.23;;;3.43;;
24277;SDS011;12394;42.692;23.314;2023-11-19T13:14:04;4.00;;;3.00;;
24277;SDS011;12394;42.692;23.314;2023-11-19T13:16:30;5.27;;;3.43;;
24277;SDS011;12394;42.692;23.314;2023-11-19T13:18:56;3.43;;;2.90;;
24277;SDS011;12394;42.692;23.314;2023-11-19T13:21:23;5.10;;;3.20;;
24277;SDS011;12394;42.692;23.314;2023-11-19T13:23:48;3.87;;;3.30;;
24277;SDS011;12394;42.692;23.314;2023-11-19T13:26:15;4.57;;;3.40;;
24277;SDS011;12394;42.692;23.314;2023-11-19T13:28:40;4.17;;;3.43;;
24277;SDS011;12394;42.692;23.314;2023-11-19T13:31:06;4.10;;;3.70;;
24277;SDS011;12394;42.692;23.314;2023-11-19T13:33:31;3.63;;;3.30;;
24277;SDS011;12394;42.692;23.314;2023-11-19T13:35:57;6.47;;;4.13;;
24277;SDS011;12394;42.692;23.314;2023-11-19T13:38:22;5.37;;;3.27;;
24277;SDS011;12394;42.692;23.314;2023-11-19T13:40:49;4.53;;;3.50;;
24277;SDS011;12394;42.692;23.314;2023-11-19T13:43:16;4.93;;;3.70;;
24277;SDS011;12394;42.692;23.314;2023-11-19T13:45:41;3.80;;;3.30;;
24277;SDS011;12394;42.692;23.314;2023-11-19T13:48:07;4.77;;;3.57;;
24277;SDS011;12394;42.692;23.314;2023-11-19T13:50:33;4.87;;;3.40;;
24277;SDS011;12394;42.692;23.314;2023-11-19T13:52:59;6.00;;;2.93;;
24277;SDS011;12394;42.692;23.314;2023-11-19T13:55:24;3.10;;;2.63;;
24277;SDS011;12394;42.692;23.314;2023-11-19T13:57:50;3.30;;;2.97;;
24277;SDS011;12394;42.692;23.314;2023-11-19T14:00:16;3.60;;;3.30;;
24277;SDS011;12394;42.692;23.314;2023-11-19T14:02:43;3.47;;;3.07;;
24277;SDS011;12394;42.692;23.314;2023-11-19T14:05:11;5.00;;;3.40;;
24277;SDS011;12394;42.692;23.314;2023-11-19T14:07:37;3.53;;;2.90;;
24277;SDS011;12394;42.692;23.314;2023-11-19T14:10:06;4.50;;;3.00;;
24277;SDS011;12394;42.692;23.314;2023-11-19T14:12:34;6.00;;;3.40;;
24277;SDS011;12394;42.692;23.314;2023-11-19T14:15:01;3.73;;;3.10;;
24277;SDS011;12394;42.692;23.314;2023-11-19T14:17:26;4.53;;;3.07;;
24277;SDS011;12394;42.692;23.314;2023-11-19T14:19:52;6.43;;;3.40;;
24277;SDS011;12394;42.692;23.314;2023-11-19T14:22:17;5.83;;;3.73;;
24277;SDS011;12394;42.692;23.314;2023-11-19T14:24:46;5.20;;;3.80;;
24277;SDS011;12394;42.692;23.314;2023-11-19T14:27:11;6.20;;;3.60;;
24277;SDS011;12394;42.692;23.314;2023-11-19T14:29:37;10.23;;;6.80;;
24277;SDS011;12394;42.692;23.314;2023-11-19T14:32:03;4.13;;;3.23;;
24277;SDS011;12394;42.692;23.314;2023-11-19T14:34:32;5.10;;;3.80;;
24277;SDS011;12394;42.692;23.314;2023-11-19T14:36:58;5.20;;;4.10;;
24277;SDS011;12394;42.692;23.314;2023-11-19T14:39:24;5.13;;;4.13;;
24277;SDS011;12394;42.692;23.314;2023-11-19T14:41:50;4.67;;;3.83;;
24277;SDS011;12394;42.692;23.314;2023-11-19T14:44:17;9.67;;;4.73;;
24277;SDS011;12394;42.692;23.314;2023-11-19T14:46:45;4.93;;;4.23;;
24277;SDS011;12394;42.692;23.314;2023-11-19T14:49:11;5.07;;;3.67;;
24277;SDS011;12394;42.692;23.314;2023-11-19T14:51:39;5.77;;;4.67;;
24277;SDS011;12394;42.692;23.314;2023-11-19T14:54:05;9.00;;;5.27;;
24277;SDS011;12394;42.692;23.314;2023-11-19T14:56:30;6.33;;;4.13;;